To NAV CANADA Home Page Login to a new session Search on AWWS site Disclaimer Vers la page française équivalente Tips FAQ What's new on the site To the Forecasts and Observations / NOTAM section To "File a Flight Plan" website Publications and other links Update of the User's profile FIC Telephone Numbers My Weather Data Folder Route Weather Data Regional Weather Data Local Weather Data To the Forecasts and Observations / NOTAM section
Request Generated 09/19/2020 at 03:33:54 UTC . Weather information available at that time is displayed.


Go to a specific product

Save this request

NOTAM

NOTAM


SIGMET
To the Product Selector

SIGMETS GFACN32

GFACN32 - No SIGMET bulletins in effect



AIRMET
To the Product Selector

AIRMETS GFACN32

GFACN32 - No AIRMET bulletins in effect



PIREP
To the Product Selector

FIR_WINNIPEG (WG)

UACN10 CYXL 190206
WG
UA /OV CYXL 325035 /TM 0158 /FL090 /TP PC12 /TB MDT 090-150 /IC MDT
MXD 090-150


METAR/TAF
To the Product Selector

REGINA INTL/SK    

METAR CYQR 190300Z 12010KT 15SM SCT260 16/02 A2999 RMK CI4 PRESFR SLP169 DENSITY ALT 2400FT=
METAR CYQR 190200Z 11009KT 15SM SCT260 16/02 A3000 RMK CI3 SLP176 DENSITY ALT 2400FT=
METAR CYQR 190100Z 11008KT 15SM SCT260 18/03 A2998 RMK CI3 SLP172 DENSITY ALT 2700FT=

TAF CYQR 182338Z 1900/1924 14005KT P6SM SKC
BECMG 1901/1903 12012KT
FM190300 12012KT P6SM SKC
FM191600 14020G30KT P6SM SKC
RMK NXT FCST BY 190600Z=

MOOSE JAW/AIR VICE MARSHAL C.M. MCEWEN/SK    

CYMJ - METAR not available

TAF AMD CYMJ 182230Z 1818/1906 FCST CNCLD DUE END OF FLYING PROGRAM
RMK NXT FCST WILL BE ISSUED AT 201315=


RADAR PCPN RATE
To the Product Selector
Pacific Canada      Western Canada     

SATELLITE VISIBLE
To the Product Selector
West Canada      

SATELLITE INFRARED
To the Product Selector
West Canada     

GRAPHICAL FA CLOUDS & WEATHER FORECASTS
To the Product Selector
Graphical FA gfacn32      

GRAPHICAL FA ICING, TURBULENCE & FREEZING LEVEL FORECASTS
To the Product Selector
Graphical FA gfacn32      

FDTEXT Low Level FD. Temperatures are not forecast for the 3,000-foot level.
To the Product Selector
STN YQR - REGINA. SASK for use 3000 6000 9000 12000 18000
FDCN01 CWAO FCST BASED ON 190000 DATA VALID 190600 05-09 1808+15 2505+08 3014+02 3120-09
FDCN02 CWAO FCST BASED ON 190000 DATA VALID 191200 09-18 1716+16 2507+10 3213+03 2911-09
FDCN03 CWAO FCST BASED ON 190000 DATA VALID 200000 18-05 1624+17 1710+12 1905+05 2013-11



Your time UTC time
Weather data provided by Environment Canada and NAV CANADA